createdAt,value
2022-11-08T00:00:46.017Z,100234.95
2022-11-08T00:03:14.357Z,100233.57
2022-11-08T00:06:01.349Z,100232.02
2022-11-08T00:08:47.838Z,100223.05
2022-11-08T00:11:34.695Z,100227.65
2022-11-08T00:14:04.043Z,100234.70
2022-11-08T00:16:32.317Z,100238.14
2022-11-08T00:19:00.623Z,100240.34
2022-11-08T00:21:29.277Z,100233.30
2022-11-08T00:23:57.437Z,100234.50
2022-11-08T00:26:25.712Z,100237.09
2022-11-08T00:28:54.167Z,100242.06
2022-11-08T00:31:22.430Z,100250.98
2022-11-08T00:33:50.875Z,100258.55
2022-11-08T00:36:19.850Z,100265.96
2022-11-08T00:38:48.484Z,100275.79
2022-11-08T00:41:16.693Z,100279.56
2022-11-08T00:43:45.579Z,100278.54
2022-11-08T00:46:14.728Z,100276.61
2022-11-08T00:48:43.668Z,100283.35
2022-11-08T00:51:13.669Z,100286.13
2022-11-08T00:53:42.813Z,100292.34
2022-11-08T00:56:14.395Z,100293.35
2022-11-08T00:58:44.736Z,100299.17
2022-11-08T01:01:18.998Z,100304.25
2022-11-08T01:03:50.014Z,100312.39
2022-11-08T01:06:23.605Z,100307.80
2022-11-08T01:08:52.483Z,100299.23
2022-11-08T01:11:23.947Z,100301.94
2022-11-08T01:13:53.464Z,100311.44
2022-11-08T01:16:24.701Z,100314.86
2022-11-08T01:18:55.155Z,100311.30
2022-11-08T01:21:25.795Z,100305.04
2022-11-08T01:23:55.401Z,100304.80
2022-11-08T01:26:27.646Z,100308.67
2022-11-08T01:28:57.689Z,100308.27
2022-11-08T01:31:29.635Z,100311.79
2022-11-08T01:33:58.946Z,100313.43
2022-11-08T01:36:28.765Z,100306.67
2022-11-08T01:38:57.902Z,100295.16
2022-11-08T01:41:27.529Z,100287.93
2022-11-08T01:43:58.189Z,100288.73
2022-11-08T01:46:33.962Z,100290.27
2022-11-08T01:49:11.422Z,100293.55
2022-11-08T01:52:01.615Z,100295.81
2022-11-08T01:54:47.269Z,100302.73
2022-11-08T01:57:21.218Z,100307.40
2022-11-08T01:59:54.687Z,100314.63
2022-11-08T02:02:23.668Z,100319.99
2022-11-08T02:04:52.228Z,100321.42
2022-11-08T02:07:20.658Z,100333.73
2022-11-08T02:09:49.708Z,100339.92
2022-11-08T02:12:24.098Z,100347.69
2022-11-08T02:14:52.921Z,100354.09
2022-11-08T02:17:21.365Z,100359.98
2022-11-08T02:19:52.133Z,100364.34
2022-11-08T02:22:39.505Z,100375.41
2022-11-08T02:25:08.027Z,100379.91
2022-11-08T02:27:36.259Z,100392.19
2022-11-08T02:30:05.075Z,100404.30
2022-11-08T02:32:43.720Z,100415.90
2022-11-08T02:35:19.670Z,100423.32
2022-11-08T02:37:48.898Z,100427.84
2022-11-08T02:40:17.059Z,100431.14
2022-11-08T02:42:45.446Z,100444.77
2022-11-08T02:45:13.769Z,100456.27
2022-11-08T02:47:41.943Z,100451.56
2022-11-08T02:50:10.637Z,100440.66
2022-11-08T02:52:38.875Z,100430.80
2022-11-08T02:55:07.484Z,100431.54
2022-11-08T02:57:35.810Z,100435.46
2022-11-08T03:00:05.128Z,100440.93
2022-11-08T03:02:33.523Z,100447.59
2022-11-08T03:05:02.013Z,100453.45
2022-11-08T03:07:30.253Z,100457.06
2022-11-08T03:09:58.478Z,100460.85
2022-11-08T03:12:27.239Z,100456.89
2022-11-08T03:14:55.459Z,100460.89
2022-11-08T03:17:23.779Z,100467.13
2022-11-08T03:19:52.084Z,100468.13
2022-11-08T03:22:20.423Z,100472.27
2022-11-08T03:24:48.631Z,100478.64
2022-11-08T03:27:17.407Z,100489.16
2022-11-08T03:29:46.107Z,100487.09
2022-11-08T03:32:15.631Z,100488.98
2022-11-08T03:34:44.061Z,100491.54
2022-11-08T03:37:12.784Z,100493.42
2022-11-08T03:39:40.949Z,100496.50
2022-11-08T03:42:09.635Z,100508.88
2022-11-08T03:44:38.160Z,100511.65
2022-11-08T03:47:06.415Z,100512.48
2022-11-08T03:49:34.574Z,100508.67
2022-11-08T03:52:03.522Z,100517.56
2022-11-08T03:54:32.880Z,100518.58
2022-11-08T03:57:01.610Z,100520.92
2022-11-08T03:59:30.447Z,100527.58
2022-11-08T04:01:59.223Z,100527.83
2022-11-08T04:04:28.154Z,100533.42
2022-11-08T04:06:57.076Z,100532.85
2022-11-08T04:09:25.706Z,100534.69
2022-11-08T04:12:13.154Z,100537.08
2022-11-08T04:15:00.797Z,100535.49
2022-11-08T04:17:49.247Z,100534.28
2022-11-08T04:20:35.950Z,100539.24
2022-11-08T04:23:04.952Z,100545.48
2022-11-08T04:25:35.269Z,100551.99
2022-11-08T04:28:04.570Z,100554.50
2022-11-08T04:30:33.703Z,100561.35
2022-11-08T04:33:06.315Z,100562.85
2022-11-08T04:35:36.190Z,100564.89
2022-11-08T04:38:04.872Z,100571.33
2022-11-08T04:40:33.920Z,100579.34
2022-11-08T04:43:03.042Z,100584.23
2022-11-08T04:45:32.006Z,100588.38
2022-11-08T04:48:00.828Z,100587.88
2022-11-08T04:50:30.118Z,100590.17
2022-11-08T04:52:59.117Z,100589.70
2022-11-08T04:55:27.960Z,100587.67
2022-11-08T04:57:59.896Z,100589.45
2022-11-08T05:00:28.686Z,100578.36
2022-11-08T05:02:57.458Z,100585.90
2022-11-08T05:05:25.796Z,100606.09
2022-11-08T05:07:55.811Z,100608.43
2022-11-08T05:10:24.073Z,100608.27
2022-11-08T05:12:57.988Z,100614.48
2022-11-08T05:15:26.324Z,100615.64
2022-11-08T05:17:55.034Z,100618.55
2022-11-08T05:20:41.751Z,100622.98
2022-11-08T05:23:26.790Z,100626.15
2022-11-08T05:25:56.466Z,100633.90
2022-11-08T05:28:25.395Z,100631.54
2022-11-08T05:30:55.190Z,100634.01
2022-11-08T05:33:24.045Z,100631.52
2022-11-08T05:35:53.039Z,100627.80
2022-11-08T05:38:22.016Z,100633.73
2022-11-08T05:40:50.820Z,100632.76
2022-11-08T05:43:19.643Z,100640.23
2022-11-08T05:45:48.897Z,100644.08
2022-11-08T05:48:17.554Z,100647.41
2022-11-08T05:50:46.474Z,100650.63
2022-11-08T05:53:15.302Z,100657.71
2022-11-08T05:55:43.928Z,100664.70
2022-11-08T05:58:12.762Z,100668.94
2022-11-08T06:00:41.984Z,100669.56
2022-11-08T06:03:10.921Z,100674.83
2022-11-08T06:05:40.054Z,100674.05
2022-11-08T06:08:08.939Z,100673.85
2022-11-08T06:10:37.391Z,100670.02
2022-11-08T06:13:06.317Z,100670.53
2022-11-08T06:15:35.075Z,100664.30
2022-11-08T06:18:05.724Z,100668.23
2022-11-08T06:20:34.697Z,100672.73
2022-11-08T06:23:02.970Z,100673.41
2022-11-08T06:25:31.462Z,100675.30
2022-11-08T06:28:01.817Z,100676.49
2022-11-08T06:30:30.484Z,100679.36
2022-11-08T06:33:01.769Z,100686.57
2022-11-08T06:35:30.292Z,100689.99
2022-11-08T06:38:00.685Z,100696.33
2022-11-08T06:40:33.376Z,100708.52
2022-11-08T06:43:02.354Z,100720.30
2022-11-08T06:45:30.691Z,100722.49
2022-11-08T06:48:00.696Z,100724.02
2022-11-08T06:50:31.179Z,100718.86
2022-11-08T06:53:00.499Z,100719.22
2022-11-08T06:55:29.539Z,100722.02
2022-11-08T06:57:58.237Z,100725.29
2022-11-08T07:00:27.964Z,100728.41
2022-11-08T07:02:58.900Z,100729.09
2022-11-08T07:05:29.145Z,100729.45
2022-11-08T07:08:02.394Z,100729.34
2022-11-08T07:10:32.685Z,100728.98
2022-11-08T07:13:02.541Z,100728.95
2022-11-08T07:15:32.468Z,100731.32
2022-11-08T07:18:08.189Z,100729.98
2022-11-08T07:20:38.151Z,100728.98
2022-11-08T07:23:07.779Z,100730.05
2022-11-08T07:25:37.242Z,100738.52
2022-11-08T07:28:09.015Z,100744.18
2022-11-08T07:30:37.779Z,100750.20
2022-11-08T07:33:06.176Z,100758.13
2022-11-08T07:35:34.820Z,100759.17
2022-11-08T07:38:03.128Z,100756.15
2022-11-08T07:40:31.828Z,100757.79
2022-11-08T07:43:15.723Z,100759.59
2022-11-08T07:45:44.347Z,100759.89
2022-11-08T07:48:14.894Z,100764.18
2022-11-08T07:50:44.418Z,100769.55
2022-11-08T07:53:13.100Z,100774.57
2022-11-08T07:55:42.480Z,100774.78
2022-11-08T07:58:12.610Z,100773.27
2022-11-08T08:00:43.069Z,100776.06
2022-11-08T08:03:14.380Z,100774.71
2022-11-08T08:05:45.628Z,100780.00
2022-11-08T08:08:15.467Z,100784.98
2022-11-08T08:10:44.077Z,100794.45
2022-11-08T08:13:12.610Z,100794.95
2022-11-08T08:15:41.429Z,100796.32
2022-11-08T08:18:10.810Z,100805.00
2022-11-08T08:20:58.167Z,100800.08
2022-11-08T08:23:27.039Z,100801.60
2022-11-08T08:25:55.833Z,100805.10
2022-11-08T08:28:24.702Z,100805.45
2022-11-08T08:30:53.330Z,100807.38
2022-11-08T08:33:28.282Z,100812.33
2022-11-08T08:35:57.749Z,100814.94
2022-11-08T08:38:26.216Z,100815.13
2022-11-08T08:40:55.341Z,100818.86
2022-11-08T08:43:24.582Z,100821.42
2022-11-08T08:45:53.045Z,100820.59
2022-11-08T08:48:21.893Z,100819.41
2022-11-08T08:50:50.203Z,100819.59
2022-11-08T08:53:19.173Z,100815.46
2022-11-08T08:55:49.626Z,100817.52
2022-11-08T08:58:18.281Z,100815.61
2022-11-08T09:03:37.056Z,100822.27
2022-11-08T09:06:06.363Z,100824.87
2022-11-08T09:08:35.005Z,100829.38
2022-11-08T09:11:03.927Z,100834.03
2022-11-08T09:13:33.411Z,100841.23
2022-11-08T09:16:03.960Z,100847.69
2022-11-08T09:18:33.952Z,100848.48
2022-11-08T09:21:05.301Z,100846.01
2022-11-08T09:23:33.830Z,100846.79
2022-11-08T09:26:06.345Z,100847.54
2022-11-08T09:28:37.009Z,100845.30
2022-11-08T09:31:13.834Z,100852.77
2022-11-08T09:33:42.986Z,100862.13
2022-11-08T09:36:16.456Z,100873.15
2022-11-08T09:38:44.779Z,100880.27
2022-11-08T09:41:19.045Z,100882.28
2022-11-08T09:43:54.156Z,100881.31
2022-11-08T09:46:59.458Z,100877.46
2022-11-08T09:49:44.488Z,100873.05
2022-11-08T09:52:25.051Z,100873.35
2022-11-08T09:54:57.853Z,100875.73
2022-11-08T09:57:35.494Z,100871.95
2022-11-08T10:00:07.484Z,100866.45
2022-11-08T10:02:38.195Z,100862.08
2022-11-08T10:05:10.917Z,100859.27
2022-11-08T10:07:52.225Z,100860.72
2022-11-08T10:10:21.009Z,100864.13
2022-11-08T10:12:56.549Z,100862.02
2022-11-08T10:16:08.754Z,100860.22
2022-11-08T10:18:50.566Z,100861.82
2022-11-08T10:21:41.859Z,100866.54
2022-11-08T10:25:01.135Z,100870.63
2022-11-08T10:27:38.019Z,100870.48
2022-11-08T10:30:17.543Z,100872.34
2022-11-08T10:32:48.873Z,100874.72
2022-11-08T10:35:20.547Z,100880.58
2022-11-08T10:37:53.057Z,100895.80
2022-11-08T10:40:40.096Z,100910.55
2022-11-08T10:43:39.167Z,100914.52
2022-11-08T10:46:33.420Z,100908.67
2022-11-08T10:49:13.467Z,100908.43
2022-11-08T10:51:42.142Z,100911.00
2022-11-08T10:54:30.371Z,100911.40
2022-11-08T10:56:59.238Z,100911.13
2022-11-08T10:59:32.144Z,100908.59
2022-11-08T11:02:01.432Z,100909.89
2022-11-08T11:04:33.492Z,100917.44
2022-11-08T11:07:33.999Z,100923.11
2022-11-08T11:10:24.531Z,100921.08
2022-11-08T11:13:05.298Z,100918.92
2022-11-08T11:15:38.693Z,100916.51
2022-11-08T11:18:25.086Z,100920.31
2022-11-08T11:21:22.909Z,100922.58
2022-11-08T11:23:52.776Z,100929.20
2022-11-08T11:26:49.312Z,100926.70
2022-11-08T11:29:25.073Z,100924.17
2022-11-08T11:31:54.890Z,100924.02
2022-11-08T11:34:44.404Z,100922.48
2022-11-08T11:37:12.644Z,100931.48
2022-11-08T11:40:01.627Z,100935.01
2022-11-08T11:43:03.485Z,100941.23
2022-11-08T11:45:57.012Z,100939.23
2022-11-08T11:48:31.167Z,100943.04
2022-11-08T11:51:00.407Z,100947.60
2022-11-08T11:53:34.095Z,100945.04
2022-11-08T11:56:24.316Z,100944.48
2022-11-08T11:59:17.664Z,100937.40
2022-11-08T12:02:18.703Z,100944.84
2022-11-08T12:05:11.734Z,100940.20
2022-11-08T12:07:48.003Z,100943.88
2022-11-08T12:10:54.716Z,100949.08
2022-11-08T12:13:29.501Z,100951.86
2022-11-08T12:16:20.324Z,100966.17
2022-11-08T12:19:10.811Z,100978.63
2022-11-08T12:21:57.955Z,100975.16
2022-11-08T12:24:37.886Z,100974.48
2022-11-08T12:27:21.111Z,100971.02
2022-11-08T12:30:05.163Z,100970.63
2022-11-08T12:32:36.469Z,100976.80
2022-11-08T12:35:30.698Z,100975.74
2022-11-08T12:38:10.987Z,100974.15
2022-11-08T12:41:05.912Z,100976.39
2022-11-08T12:43:50.173Z,100982.02
2022-11-08T12:46:20.131Z,100985.34
2022-11-08T12:48:51.067Z,100986.34
2022-11-08T12:51:31.736Z,100987.64
2022-11-08T12:54:15.867Z,100995.08
2022-11-08T12:56:49.898Z,100998.30
2022-11-08T12:59:21.117Z,101002.93
2022-11-08T13:01:50.356Z,101010.14
2022-11-08T13:04:45.267Z,101012.19
2022-11-08T13:07:38.089Z,101010.27
2022-11-08T13:10:29.583Z,101012.20
2022-11-08T13:13:22.032Z,101010.84
2022-11-08T13:16:41.604Z,101016.29
2022-11-08T13:19:39.487Z,101021.05
2022-11-08T13:22:30.554Z,101023.32
2022-11-08T13:25:05.809Z,101023.48
2022-11-08T13:27:49.292Z,101023.18
2022-11-08T13:30:17.933Z,101023.40
2022-11-08T13:32:55.371Z,101031.13
2022-11-08T13:36:10.491Z,101034.93
2022-11-08T13:39:22.501Z,101042.71
2022-11-08T13:42:05.819Z,101040.35
2022-11-08T13:44:56.488Z,101041.86
2022-11-08T13:47:34.245Z,101047.62
2022-11-08T13:50:30.688Z,101048.50
2022-11-08T13:53:20.307Z,101052.37
2022-11-08T13:55:48.986Z,101056.29
2022-11-08T13:58:37.006Z,101059.81
2022-11-08T14:01:20.771Z,101059.67
2022-11-08T14:03:49.699Z,101061.30
2022-11-08T14:06:47.044Z,101059.90
2022-11-08T14:09:22.030Z,101063.50
2022-11-08T14:11:56.107Z,101066.80
2022-11-08T14:14:27.754Z,101073.14
2022-11-08T14:17:11.139Z,101078.80
2022-11-08T14:19:41.858Z,101079.11
2022-11-08T14:22:21.652Z,101077.70
2022-11-08T14:24:52.355Z,101082.93
2022-11-08T14:27:40.309Z,101083.15
2022-11-08T14:30:24.471Z,101088.41
2022-11-08T14:33:14.415Z,101089.33
2022-11-08T14:35:43.359Z,101096.27
2022-11-08T14:38:16.158Z,101099.07
2022-11-08T14:40:54.463Z,101103.21
2022-11-08T14:43:24.002Z,101110.48
2022-11-08T14:45:53.503Z,101109.00
2022-11-08T14:48:32.678Z,101111.13
2022-11-08T14:51:07.215Z,101116.17
2022-11-08T14:53:46.935Z,101122.36
2022-11-08T14:56:20.028Z,101123.42
2022-11-08T14:58:50.455Z,101123.77
2022-11-08T15:01:24.294Z,101126.05
2022-11-08T15:04:03.807Z,101124.77
2022-11-08T15:06:44.160Z,101119.98
2022-11-08T15:09:34.696Z,101119.89
2022-11-08T15:12:15.115Z,101127.19
2022-11-08T15:14:58.606Z,101128.51
2022-11-08T15:17:35.588Z,101135.78
2022-11-08T15:20:05.511Z,101138.80
2022-11-08T15:22:36.073Z,101139.92
2022-11-08T15:25:37.018Z,101142.89
2022-11-08T15:28:17.722Z,101144.91
2022-11-08T15:30:47.671Z,101150.70
2022-11-08T15:33:38.027Z,101154.26
2022-11-08T15:36:15.410Z,101156.09
2022-11-08T15:38:48.801Z,101164.73
2022-11-08T15:41:36.491Z,101174.30
2022-11-08T15:44:25.435Z,101171.31
2022-11-08T15:46:55.731Z,101172.85
2022-11-08T15:49:30.495Z,101175.83
2022-11-08T15:52:01.594Z,101176.45
2022-11-08T15:54:29.979Z,101184.20
2022-11-08T15:56:58.573Z,101185.80
2022-11-08T15:59:30.895Z,101191.18
2022-11-08T16:02:04.573Z,101196.22
2022-11-08T16:04:33.167Z,101196.55
2022-11-08T16:07:02.194Z,101196.63
2022-11-08T16:09:30.826Z,101196.67
2022-11-08T16:11:59.610Z,101203.06
2022-11-08T16:14:28.134Z,101203.52
2022-11-08T16:16:56.781Z,101203.29
2022-11-08T16:19:27.071Z,101203.33
2022-11-08T16:21:55.807Z,101204.95
2022-11-08T16:24:24.948Z,101210.28
2022-11-08T16:26:53.773Z,101212.88
2022-11-08T16:29:25.430Z,101211.76
2022-11-08T16:31:54.281Z,101218.30
2022-11-08T16:34:23.315Z,101225.23
2022-11-08T16:36:53.035Z,101229.02
2022-11-08T16:39:27.149Z,101228.58
2022-11-08T16:41:55.852Z,101229.31
2022-11-08T16:44:24.440Z,101230.59
2022-11-08T16:46:55.030Z,101229.59
2022-11-08T16:49:25.585Z,101233.41
2022-11-08T16:51:54.271Z,101240.48
2022-11-08T16:54:29.408Z,101241.14
2022-11-08T16:57:20.650Z,101242.74
2022-11-08T16:59:47.067Z,101243.89
2022-11-08T17:02:23.014Z,101245.02
2022-11-08T17:04:51.717Z,101247.98
2022-11-08T17:07:20.503Z,101251.45
2022-11-08T17:09:49.073Z,101254.21
2022-11-08T17:12:18.210Z,101256.11
2022-11-08T17:14:47.403Z,101256.13
2022-11-08T17:17:17.247Z,101256.55
2022-11-08T17:19:45.943Z,101258.31
2022-11-08T17:22:14.681Z,101260.48
2022-11-08T17:24:43.306Z,101260.61
2022-11-08T17:27:12.556Z,101260.13
2022-11-08T17:29:41.059Z,101261.70
2022-11-08T17:32:09.281Z,101262.48
2022-11-08T17:34:37.882Z,101262.75
2022-11-08T17:37:06.097Z,101264.86
2022-11-08T17:39:35.193Z,101267.30
2022-11-08T17:42:04.167Z,101267.39
2022-11-08T17:44:32.923Z,101272.32
2022-11-08T17:47:01.741Z,101270.00
2022-11-08T17:49:30.050Z,101271.91
2022-11-08T17:51:58.896Z,101275.05
2022-11-08T17:54:27.623Z,101280.49
2022-11-08T17:56:56.448Z,101278.39
2022-11-08T17:59:25.186Z,101283.29
2022-11-08T18:01:53.988Z,101284.02
2022-11-08T18:04:23.040Z,101285.65
2022-11-08T18:06:51.990Z,101281.13
2022-11-08T18:09:21.291Z,101279.20
2022-11-08T18:11:50.646Z,101279.13
2022-11-08T18:14:25.511Z,101275.39
2022-11-08T18:16:57.902Z,101276.39
2022-11-08T18:19:26.503Z,101277.89
2022-11-08T18:21:55.364Z,101278.52
2022-11-08T18:24:23.980Z,101279.81
2022-11-08T18:26:52.808Z,101279.77
2022-11-08T18:29:21.638Z,101279.85
2022-11-08T18:31:50.456Z,101283.42
2022-11-08T18:34:19.224Z,101283.28
2022-11-08T18:36:50.096Z,101281.23
2022-11-08T18:39:20.014Z,101282.81
2022-11-08T18:41:48.380Z,101283.73
2022-11-08T18:44:17.249Z,101281.24
2022-11-08T18:46:46.343Z,101283.27
2022-11-08T18:49:15.385Z,101280.60
2022-11-08T18:51:44.084Z,101282.02
2022-11-08T18:54:12.588Z,101281.91
2022-11-08T18:56:41.389Z,101283.84
2022-11-08T18:59:10.147Z,101283.49
2022-11-08T19:01:39.267Z,101282.04
2022-11-08T19:04:08.308Z,101280.80
2022-11-08T19:06:37.185Z,101282.84
2022-11-08T19:09:06.234Z,101283.98
2022-11-08T19:11:35.064Z,101281.92
2022-11-08T19:14:03.852Z,101273.84
2022-11-08T19:16:32.463Z,101268.89
2022-11-08T19:19:01.598Z,101276.66
2022-11-08T19:21:30.282Z,101274.48
2022-11-08T19:24:00.873Z,101272.09
2022-11-08T19:26:30.760Z,101271.88
2022-11-08T19:28:59.480Z,101269.52
2022-11-08T19:31:28.166Z,101268.95
2022-11-08T19:33:56.956Z,101270.05
2022-11-08T19:36:28.120Z,101262.48
2022-11-08T19:38:58.859Z,101259.11
2022-11-08T19:41:30.513Z,101262.33
2022-11-08T19:43:59.371Z,101259.42
2022-11-08T19:46:31.244Z,101256.34
2022-11-08T19:49:03.113Z,101256.05
2022-11-08T19:51:36.605Z,101253.48
2022-11-08T19:54:08.277Z,101253.69
2022-11-08T19:59:26.936Z,101246.86
2022-11-08T20:01:55.837Z,101243.80
2022-11-08T20:04:24.477Z,101238.86
2022-11-08T20:06:52.880Z,101237.12
2022-11-08T20:09:25.940Z,101236.08
2022-11-08T20:11:57.841Z,101234.05
2022-11-08T20:14:26.789Z,101226.27
2022-11-08T20:16:56.510Z,101225.52
2022-11-08T20:19:25.297Z,101223.70
2022-11-08T20:21:58.208Z,101223.37
2022-11-08T20:24:27.001Z,101222.70
2022-11-08T20:26:56.543Z,101219.14
2022-11-08T20:29:25.073Z,101217.34
2022-11-08T20:31:54.677Z,101214.70
2022-11-08T20:34:23.633Z,101216.80
2022-11-08T20:36:52.445Z,101214.54
2022-11-08T20:39:21.086Z,101218.98
2022-11-08T20:41:50.053Z,101210.35
2022-11-08T20:44:18.567Z,101205.04
2022-11-08T20:46:47.488Z,101198.34
2022-11-08T20:49:16.232Z,101193.95
2022-11-08T20:51:44.929Z,101191.30
2022-11-08T20:54:13.919Z,101190.88
2022-11-08T20:56:42.585Z,101188.27
2022-11-08T20:59:11.949Z,101186.91
2022-11-08T21:01:40.432Z,101186.17
2022-11-08T21:04:09.841Z,101184.18
2022-11-08T21:06:38.877Z,101186.22
2022-11-08T21:09:34.283Z,101184.66
2022-11-08T21:11:58.450Z,101184.85
2022-11-08T21:14:27.292Z,101187.34
2022-11-08T21:19:44.761Z,101183.23
2022-11-08T21:22:19.083Z,101176.02
2022-11-08T21:24:49.706Z,101171.33
2022-11-08T21:27:18.573Z,101172.77
2022-11-08T21:29:51.536Z,101170.88
2022-11-08T21:32:20.175Z,101169.55
2022-11-08T21:34:48.771Z,101168.77
2022-11-08T21:37:17.468Z,101165.57
2022-11-08T21:39:46.113Z,101164.82
2022-11-08T21:42:14.929Z,101164.04
2022-11-08T21:44:43.758Z,101161.70
2022-11-08T21:47:12.910Z,101158.45
2022-11-08T21:49:41.853Z,101155.27
2022-11-08T21:52:10.797Z,101149.10
2022-11-08T21:54:40.203Z,101151.05
2022-11-08T21:57:08.576Z,101144.80
2022-11-08T21:59:37.190Z,101141.97
2022-11-08T22:02:06.149Z,101142.60
2022-11-08T22:04:34.990Z,101144.08
2022-11-08T22:07:03.669Z,101140.36
2022-11-08T22:09:32.425Z,101134.07
2022-11-08T22:12:01.652Z,101129.66
2022-11-08T22:14:32.333Z,101125.40
2022-11-08T22:17:01.044Z,101124.59
2022-11-08T22:19:29.914Z,101125.66
2022-11-08T22:21:58.809Z,101127.95
2022-11-08T22:24:30.294Z,101128.51
2022-11-08T22:26:58.886Z,101127.19
2022-11-08T22:29:27.771Z,101124.52
2022-11-08T22:31:56.504Z,101123.71
2022-11-08T22:34:25.487Z,101124.66
2022-11-08T22:36:54.198Z,101120.81
2022-11-08T22:39:24.980Z,101123.18
2022-11-08T22:41:57.052Z,101120.89
2022-11-08T22:44:25.383Z,101120.66
2022-11-08T22:46:53.624Z,101123.25
2022-11-08T22:49:22.359Z,101114.47
2022-11-08T22:51:50.596Z,101116.77
2022-11-08T22:54:18.766Z,101114.14
2022-11-08T22:56:47.765Z,101115.86
2022-11-08T22:59:16.471Z,101118.59
2022-11-08T23:01:45.097Z,101118.88
2022-11-08T23:04:14.110Z,101118.77
2022-11-08T23:06:42.749Z,101119.52
2022-11-08T23:09:11.786Z,101122.14
2022-11-08T23:12:02.302Z,101120.34
2022-11-08T23:14:49.111Z,101120.36
2022-11-08T23:17:17.905Z,101121.02
2022-11-08T23:20:04.911Z,101121.35
2022-11-08T23:22:52.027Z,101124.61
2022-11-08T23:25:20.673Z,101127.27
2022-11-08T23:28:07.140Z,101124.05
2022-11-08T23:30:53.656Z,101119.58
2022-11-08T23:33:22.386Z,101120.15
2022-11-08T23:36:17.040Z,101123.52
2022-11-08T23:38:45.882Z,101125.13
2022-11-08T23:41:32.922Z,101122.30
2022-11-08T23:44:20.466Z,101117.42
2022-11-08T23:46:49.146Z,101122.85
2022-11-08T23:49:17.818Z,101124.66
2022-11-08T23:51:46.628Z,101125.42
2022-11-08T23:54:15.140Z,101128.92
2022-11-08T23:56:44.274Z,101130.38
2022-11-08T23:59:14.233Z,101129.13
